Darstellungsparameter: Aktuell verwendete Einstellungen:
Skalierung der Graphiken ... ?
xyx+y,   Skalierungsfaktor:      Skalierung: Modus: x, Faktor: 1
Darstellungszeitraum ... ?
Vom - - bis: - -   Zeitraum: 24.11.2007 - 23.11.2008
Min/Max/Avg-Anzeige ... ?
Zeige MMA aktuell
Zeige MMA Monat
Zeige MMA alles
Zeige --A aktuell
Zeige --A Monat
Zeige --A alles
Keine MMA-Anzeige
MMA:
Average (ber die Originaldaten)
MMA-Basis: 17.04.2019 - 19.05.2019
Quicknavigation für Darstellung... ?
Tage:      1T, 2T, 3T, 5T -1T -2T -3T -5T +1T +2T +3T +5T
Wochen: 1W, 2W, 3W -1W -2W -3W +1W +2W +3W
Monate: 1M, 3M, 6M -1M -3M -6M +1M +3M +6M
Jahre:    1J, 3J, 5J, 10J -1J -3J -5J -10J +1J +3J +5J +10J
Nutze für die Darstellung ... ?
Originaldaten oder ...
Mittelwerte Minima Maxima auf...
Stundenbasis Tagesbasis Wochenbasis
Monatsbasis Jahresbasis      Datenbasis: Mittelwerte auf Tagesbasis
Darstellen als:
Statistik (Auto) Statistik J:M      Darstellung:
Zur Graphik,    zurück zur Übersicht aller Sensoren.
 
Tabellarische Datenbersicht: ?
 
Sensor: Nr:Datum:Temp:Abs-Feuchte:Windchill:Wind:
Aussen-T/F 1 24-11-2007 00:00:00 2.76833 C 4.82 g/m*3 2.77 C 0 km/h
2 25-11-2007 00:00:00 4.25167 C 5.29 g/m*3 4.25 C 0 km/h
3 26-11-2007 00:00:00 3.9725 C 4.66 g/m*3 3.97 C 0 km/h
4 27-11-2007 00:00:00 4.23833 C 4.68 g/m*3 4.24 C 0 km/h
5 28-11-2007 00:00:00 0.0625 C 4.32 g/m*3 0.06 C 0 km/h
6 29-11-2007 00:00:00 1.3325 C 4.59 g/m*3 1.33 C 0 km/h
7 30-11-2007 00:00:00 5.76 C 5.7 g/m*3 5.76 C 0 km/h
8 01-12-2007 00:00:00 8.51345 C 5.82 g/m*3 8.51 C 0 km/h
9 02-12-2007 00:00:00 9.13667 C 6.27 g/m*3 9.14 C 0 km/h
10 03-12-2007 00:00:00 7.21167 C 4.97 g/m*3 7.21 C 0 km/h
11 04-12-2007 00:00:00 5.77583 C 5.61 g/m*3 5.78 C 0 km/h
12 05-12-2007 00:00:00 10.11667 C 7.2 g/m*3 10.12 C 0 km/h
13 06-12-2007 00:00:00 9.85667 C 6.67 g/m*3 9.86 C 0 km/h
14 07-12-2007 00:00:00 10.3625 C 6.09 g/m*3 10.36 C 0 km/h
15 08-12-2007 00:00:00 5.77917 C 4.69 g/m*3 5.78 C 0 km/h
16 09-12-2007 00:00:00 7.00333 C 5.75 g/m*3 7 C 0 km/h
17 10-12-2007 00:00:00 6.24167 C 6.16 g/m*3 6.24 C 0 km/h
18 11-12-2007 00:00:00 5.6775 C 5.39 g/m*3 5.68 C 0 km/h
19 12-12-2007 00:00:00 4.92417 C 5 g/m*3 4.92 C 0 km/h
20 13-12-2007 00:00:00 5.2125 C 4.36 g/m*3 5.21 C 0 km/h
21 14-12-2007 00:00:00 2.35798 C 2.96 g/m*3 2.36 C 0 km/h
22 15-12-2007 00:00:00 0.0325 C 2.86 g/m*3 0.03 C 0 km/h
23 16-12-2007 00:00:00 -2.92417 C 2.98 g/m*3 -2.92 C 0 km/h
24 17-12-2007 00:00:00 -1.06 C 2.85 g/m*3 -1.06 C 0 km/h
25 18-12-2007 00:00:00 -2.50833 C 3.14 g/m*3 -2.51 C 0 km/h
Sensor: Nr:Datum:Temp:Abs-Feuchte:Windchill:Wind:
Aussen-T/F 26 19-12-2007 00:00:00 -3.8675 C 3.09 g/m*3 -3.87 C 0 km/h
27 20-12-2007 00:00:00 -5.26417 C 2.9 g/m*3 -5.26 C 0 km/h
28 21-12-2007 00:00:00 -5.9625 C 2.72 g/m*3 -5.96 C 0 km/h
29 22-12-2007 00:00:00 -7.21833 C 2.43 g/m*3 -7.22 C 0 km/h
30 23-12-2007 00:00:00 -5.47333 C 2.81 g/m*3 -5.47 C 0 km/h
31 24-12-2007 00:00:00 -1.28333 C 4.01 g/m*3 -1.28 C 0 km/h
32 25-12-2007 00:00:00 -3.13917 C 3.2 g/m*3 -3.14 C 0 km/h
33 26-12-2007 00:00:00 -1.31513 C 3.83 g/m*3 -1.32 C 0 km/h
34 27-12-2007 00:00:00 2.63917 C 4.81 g/m*3 2.64 C 0 km/h
35 28-12-2007 00:00:00 4.575 C 5.27 g/m*3 4.58 C 0 km/h
36 29-12-2007 00:00:00 3.32667 C 4.84 g/m*3 3.33 C 0 km/h
37 30-12-2007 00:00:00 4.99167 C 5.24 g/m*3 4.99 C 0 km/h
38 31-12-2007 00:00:00 3.21667 C 5.19 g/m*3 3.22 C 0 km/h
39 01-01-2008 00:00:00 1.85083 C 4.52 g/m*3 1.85 C 0 km/h
40 02-01-2008 00:00:00 -1.72 C 3.21 g/m*3 -1.72 C 0 km/h
41 03-01-2008 00:00:00 -0.05667 C 2.87 g/m*3 -0.06 C 0 km/h
42 04-01-2008 00:00:00 0.27167 C 3.34 g/m*3 0.27 C 0 km/h
43 05-01-2008 00:00:00 5.0775 C 5.63 g/m*3 5.08 C 0 km/h
44 06-01-2008 00:00:00 3.95167 C 5.23 g/m*3 3.95 C 0 km/h
45 07-01-2008 00:00:00 5.63583 C 5.3 g/m*3 5.64 C 0 km/h
46 08-01-2008 00:00:00 4.45546 C 5.42 g/m*3 4.46 C 0 km/h
47 09-01-2008 00:00:00 4.03167 C 5.39 g/m*3 4.03 C 0 km/h
48 10-01-2008 00:00:00 6.32083 C 5.48 g/m*3 6.32 C 0 km/h
49 11-01-2008 00:00:00 9.6175 C 5.87 g/m*3 9.62 C 0 km/h
50 12-01-2008 00:00:00 6.39 C 5.01 g/m*3 6.39 C 0 km/h
Sensor: Nr:Datum:Temp:Abs-Feuchte:Windchill:Wind:
Aussen-T/F 51 13-01-2008 00:00:00 0.58167 C 4.26 g/m*3 0.58 C 0 km/h
52 14-01-2008 00:00:00 3.80833 C 4.9 g/m*3 3.81 C 0 km/h
53 15-01-2008 00:00:00 8.28833 C 5.12 g/m*3 8.29 C 0 km/h
54 16-01-2008 00:00:00 8.28667 C 5.35 g/m*3 8.29 C 0 km/h
55 17-01-2008 00:00:00 7.21833 C 5.52 g/m*3 7.22 C 0 km/h
56 18-01-2008 00:00:00 9.17667 C 6.31 g/m*3 9.18 C 0 km/h
57 19-01-2008 00:00:00 12.72353 C 7.44 g/m*3 12.72 C 0 km/h
58 20-01-2008 00:00:00 12.27333 C 6.9 g/m*3 12.27 C 0 km/h
59 21-01-2008 00:00:00 10.17403 C 5.8 g/m*3 10.17 C 0 km/h
60 22-01-2008 00:00:00 4.58605 C 4.01 g/m*3 4.59 C 0 km/h
61 23-01-2008 00:00:00 2.9125 C 3.92 g/m*3 2.91 C 0 km/h
62 24-01-2008 00:00:00 6.355 C 4.65 g/m*3 6.36 C 0 km/h
63 25-01-2008 00:00:00 3.72583 C 4.34 g/m*3 3.73 C 0 km/h
64 26-01-2008 00:00:00 5.43583 C 4.26 g/m*3 5.44 C 0 km/h
65 27-01-2008 00:00:00 5.64333 C 4.29 g/m*3 5.64 C 0 km/h
66 28-01-2008 00:00:00 7.44 C 5.19 g/m*3 7.44 C 0 km/h
67 29-01-2008 00:00:00 5.72167 C 4.29 g/m*3 5.72 C 0 km/h
68 30-01-2008 00:00:00 2.05833 C 4.71 g/m*3 2.06 C 0 km/h
69 31-01-2008 00:00:00 2.0958 C 3.82 g/m*3 2.1 C 0 km/h
70 01-02-2008 00:00:00 4.10167 C 4.83 g/m*3 4.1 C 0 km/h
71 02-02-2008 00:00:00 2.155 C 3.64 g/m*3 2.15 C 0 km/h
72 03-02-2008 00:00:00 0.64917 C 3.2 g/m*3 0.65 C 0 km/h
73 04-02-2008 00:00:00 4.5125 C 4.25 g/m*3 4.51 C 0 km/h
74 05-02-2008 00:00:00 6.43917 C 5.11 g/m*3 6.44 C 0 km/h
75 06-02-2008 00:00:00 8.675 C 5.72 g/m*3 8.68 C 0 km/h
Sensor: Nr:Datum:Temp:Abs-Feuchte:Windchill:Wind:
Aussen-T/F 76 07-02-2008 00:00:00 3.96333 C 4.24 g/m*3 3.96 C 0 km/h
77 08-02-2008 00:00:00 2.41167 C 3.87 g/m*3 2.41 C 0 km/h
78 09-02-2008 00:00:00 2.61833 C 3.61 g/m*3 2.62 C 0 km/h
79 10-02-2008 00:00:00 2.41333 C 3.74 g/m*3 2.41 C 0 km/h
80 11-02-2008 00:00:00 3.10083 C 4.4 g/m*3 3.1 C 0 km/h
81 12-02-2008 00:00:00 2.92667 C 4.49 g/m*3 2.93 C 0 km/h
82 13-02-2008 00:00:00 2.03193 C 4.33 g/m*3 2.03 C 0 km/h
83 14-02-2008 00:00:00 0.96667 C 4.4 g/m*3 0.97 C 0 km/h
84 15-02-2008 00:00:00 2.4125 C 3.13 g/m*3 2.41 C 0 km/h
85 16-02-2008 00:00:00 -0.75333 C 2.03 g/m*3 -0.75 C 0 km/h
86 17-02-2008 00:00:00 -1.21667 C 2.05 g/m*3 -1.22 C 0 km/h
87 18-02-2008 00:00:00 -0.28333 C 2.13 g/m*3 -0.28 C 0 km/h
88 19-02-2008 00:00:00 0.85417 C 2.54 g/m*3 0.85 C 0 km/h
89 20-02-2008 00:00:00 1.65 C 4.49 g/m*3 1.65 C 0 km/h
90 21-02-2008 00:00:00 6.5725 C 5.76 g/m*3 6.57 C 0 km/h
91 22-02-2008 00:00:00 9.70667 C 5.88 g/m*3 9.71 C 0 km/h
92 23-02-2008 00:00:00 9.48833 C 5.6 g/m*3 9.49 C 0 km/h
93 24-02-2008 00:00:00 6.65583 C 5.66 g/m*3 6.66 C 0 km/h
94 25-02-2008 00:00:00 9.93833 C 6.06 g/m*3 9.94 C 0 km/h
95 26-02-2008 00:00:00 11.1075 C 6.49 g/m*3 11.11 C 0 km/h
96 27-02-2008 00:00:00 7.70168 C 4.44 g/m*3 7.7 C 0 km/h
97 28-02-2008 00:00:00 7.6125 C 4.89 g/m*3 7.61 C 0 km/h
98 29-02-2008 00:00:00 8.7625 C 7.16 g/m*3 8.76 C 0 km/h
99 01-03-2008 00:00:00 9.4675 C 4.85 g/m*3 9.47 C 0 km/h
100 02-03-2008 00:00:00 11.1725 C 5.33 g/m*3 11.17 C 0 km/h
Sensor: Nr:Datum:Temp:Abs-Feuchte:Windchill:Wind:
Aussen-T/F 101 03-03-2008 00:00:00 7.56583 C 4.08 g/m*3 7.57 C 0 km/h
102 04-03-2008 00:00:00 2.7525 C 4.06 g/m*3 2.75 C 0 km/h
103 05-03-2008 00:00:00 1.71 C 3.03 g/m*3 1.71 C 0 km/h
104 06-03-2008 00:00:00 2.81917 C 2.99 g/m*3 2.82 C 0 km/h
105 07-03-2008 00:00:00 6.93833 C 4.72 g/m*3 6.94 C 0 km/h
106 08-03-2008 00:00:00 6.94667 C 4.5 g/m*3 6.95 C 0 km/h
107 09-03-2008 00:00:00 8.06667 C 4.11 g/m*3 8.07 C 0 km/h
108 10-03-2008 00:00:00 8.22941 C 4.32 g/m*3 8.23 C 0 km/h
109 11-03-2008 00:00:00 8.355 C 5.31 g/m*3 8.36 C 0 km/h
110 12-03-2008 00:00:00 9.11833 C 4.2 g/m*3 9.12 C 0 km/h
111 13-03-2008 00:00:00 7.62667 C 4.06 g/m*3 7.63 C 0 km/h
112 14-03-2008 00:00:00 9.14417 C 5.77 g/m*3 9.14 C 0 km/h
113 15-03-2008 00:00:00 9.33 C 5.42 g/m*3 9.33 C 0 km/h
114 16-03-2008 00:00:00 9.8675 C 6.68 g/m*3 9.87 C 0 km/h
115 17-03-2008 00:00:00 5.94583 C 3.99 g/m*3 5.95 C 0 km/h
116 18-03-2008 00:00:00 4.26083 C 3.07 g/m*3 4.26 C 0 km/h
117 19-03-2008 00:00:00 3.37083 C 3.9 g/m*3 3.37 C 0 km/h
118 20-03-2008 00:00:00 3.89083 C 4.07 g/m*3 3.89 C 0 km/h
119 21-03-2008 00:00:00 3.9975 C 4.22 g/m*3 4 C 0 km/h
120 22-03-2008 00:00:00 2.82917 C 4.71 g/m*3 2.83 C 0 km/h
121 23-03-2008 00:00:00 1.56639 C 2.31 g/m*3 1.57 C 0 km/h
122 24-03-2008 00:00:00 -0.00917 C 3.2 g/m*3 -0.01 C 0 km/h
123 25-03-2008 00:00:00 1.51333 C 3.09 g/m*3 1.51 C 0 km/h
124 26-03-2008 00:00:00 2.39667 C 4.29 g/m*3 2.4 C 0 km/h
125 27-03-2008 00:00:00 5.29417 C 5.44 g/m*3 5.29 C 0 km/h
Sensor: Nr:Datum:Temp:Abs-Feuchte:Windchill:Wind:
Aussen-T/F 126 28-03-2008 00:00:00 8.15333 C 4.14 g/m*3 8.15 C 0 km/h
127 29-03-2008 00:00:00 9.55083 C 3.95 g/m*3 9.55 C 0 km/h
128 30-03-2008 00:00:00 13.03217 C 4.01 g/m*3 13.03 C 0 km/h
129 31-03-2008 00:00:00 11.98333 C 5.6 g/m*3 11.98 C 0 km/h
130 01-04-2008 00:00:00 10.06833 C 5.37 g/m*3 10.07 C 0 km/h
131 02-04-2008 00:00:00 9.77417 C 5.52 g/m*3 9.77 C 0 km/h
132 03-04-2008 00:00:00 7.48 C 5.75 g/m*3 7.48 C 0 km/h
133 04-04-2008 00:00:00 9.15583 C 5.79 g/m*3 9.16 C 0 km/h
134 05-04-2008 00:00:00 7.49076 C 6.73 g/m*3 7.49 C 0 km/h
135 06-04-2008 00:00:00 3.825 C 5.64 g/m*3 3.83 C 0 km/h
136 07-04-2008 00:00:00 1.36917 C 4.88 g/m*3 1.37 C 0 km/h
137 08-04-2008 00:00:00 3.57833 C 4.72 g/m*3 3.58 C 0 km/h
138 09-04-2008 00:00:00 5.82833 C 5.5 g/m*3 5.83 C 0 km/h
139 10-04-2008 00:00:00 8.76917 C 5.74 g/m*3 8.77 C 0 km/h
140 11-04-2008 00:00:00 8.235 C 6.34 g/m*3 8.24 C 0 km/h
141 12-04-2008 00:00:00 8.02 C 5.41 g/m*3 8.02 C 0 km/h
142 13-04-2008 00:00:00 9.70833 C 6.56 g/m*3 9.71 C 0 km/h
143 14-04-2008 00:00:00 7.63083 C 6.9 g/m*3 7.63 C 0 km/h
144 15-04-2008 00:00:00 6.56083 C 5.99 g/m*3 6.56 C 0 km/h
145 16-04-2008 00:00:00 6.30083 C 4.78 g/m*3 6.3 C 0 km/h
146 17-04-2008 00:00:00 6.47227 C 4.04 g/m*3 6.47 C 0 km/h
147 18-04-2008 00:00:00 9.94 C 4.58 g/m*3 9.94 C 0 km/h
148 19-04-2008 00:00:00 8.41667 C 6.18 g/m*3 8.42 C 0 km/h
149 20-04-2008 00:00:00 12.42417 C 7.14 g/m*3 12.42 C 0 km/h
150 21-04-2008 00:00:00 12.98833 C 6.29 g/m*3 12.99 C 0 km/h
Sensor: Nr:Datum:Temp:Abs-Feuchte:Windchill:Wind:
Aussen-T/F 151 22-04-2008 00:00:00 12.95917 C 5.98 g/m*3 12.96 C 0 km/h
152 23-04-2008 00:00:00 13.95083 C 6.27 g/m*3 13.95 C 0 km/h
153 24-04-2008 00:00:00 15.095 C 7.14 g/m*3 15.1 C 0 km/h
154 25-04-2008 00:00:00 12.67583 C 6.12 g/m*3 12.68 C 0 km/h
155 26-04-2008 00:00:00 14.51833 C 6.16 g/m*3 14.52 C 0 km/h
156 27-04-2008 00:00:00 15.87667 C 5.79 g/m*3 15.88 C 0 km/h
157 28-04-2008 00:00:00 13.4125 C 8.14 g/m*3 13.41 C 0 km/h
158 29-04-2008 00:00:00 13.07667 C 6.39 g/m*3 13.08 C 0 km/h
159 30-04-2008 00:00:00 13.76639 C 5.33 g/m*3 13.77 C 0 km/h
160 01-05-2008 00:00:00 11.62583 C 5.8 g/m*3 11.63 C 0 km/h
161 02-05-2008 00:00:00 12.97583 C 6.28 g/m*3 12.98 C 0 km/h
162 03-05-2008 00:00:00 14.47667 C 6.5 g/m*3 14.48 C 0 km/h
163 04-05-2008 00:00:00 17.15667 C 5.91 g/m*3 17.16 C 0 km/h
164 05-05-2008 00:00:00 16.51 C 5.51 g/m*3 16.51 C 0 km/h
165 06-05-2008 00:00:00 18.36833 C 7.67 g/m*3 18.37 C 0 km/h
166 07-05-2008 00:00:00 19.48083 C 7 g/m*3 19.48 C 0 km/h
167 08-05-2008 00:00:00 19.40583 C 6.98 g/m*3 19.41 C 0 km/h
168 09-05-2008 00:00:00 20.20083 C 7.05 g/m*3 20.2 C 0 km/h
169 10-05-2008 00:00:00 21.22917 C 7.16 g/m*3 21.23 C 0 km/h
170 11-05-2008 00:00:00 21.15714 C 6.43 g/m*3 21.16 C 0 km/h
171 12-05-2008 00:00:00 21.02017 C 6.74 g/m*3 21.02 C 0 km/h
172 13-05-2008 00:00:00 21.3175 C 7.09 g/m*3 21.32 C 0 km/h
173 14-05-2008 00:00:00 21.27167 C 7.79 g/m*3 21.27 C 0 km/h
174 15-05-2008 00:00:00 18.93333 C 8.92 g/m*3 18.93 C 0 km/h
175 16-05-2008 00:00:00 18.3725 C 9.69 g/m*3 18.37 C 0 km/h
Sensor: Nr:Datum:Temp:Abs-Feuchte:Windchill:Wind:
Aussen-T/F 176 17-05-2008 00:00:00 17.11167 C 10.03 g/m*3 17.11 C 0 km/h
177 18-05-2008 00:00:00 14.09583 C 8.38 g/m*3 14.1 C 0 km/h
178 19-05-2008 00:00:00 14.61833 C 5.61 g/m*3 14.62 C 0 km/h
179 20-05-2008 00:00:00 15.59417 C 4.92 g/m*3 15.59 C 0 km/h
180 21-05-2008 00:00:00 16.93833 C 4.74 g/m*3 16.94 C 0 km/h
181 22-05-2008 00:00:00 18.32417 C 5.49 g/m*3 18.32 C 0 km/h
182 23-05-2008 00:00:00 19.045 C 6.46 g/m*3 19.05 C 0 km/h
183 24-05-2008 00:00:00 18.23 C 7.82 g/m*3 18.23 C 0 km/h
184 25-05-2008 00:00:00 21.65462 C 9.39 g/m*3 21.65 C 0 km/h
185 26-05-2008 00:00:00 21.2775 C 11.27 g/m*3 21.28 C 0 km/h
186 27-05-2008 00:00:00 22.17167 C 12.27 g/m*3 22.17 C 0 km/h
187 28-05-2008 00:00:00 23.79417 C 10.23 g/m*3 23.79 C 0 km/h
188 29-05-2008 00:00:00 23.08917 C 11.47 g/m*3 23.09 C 0 km/h
189 30-05-2008 00:00:00 20.37 C 13.32 g/m*3 20.37 C 0 km/h
190 31-05-2008 00:00:00 17.68917 C 12.05 g/m*3 17.69 C 0 km/h
191 01-06-2008 00:00:00 21.38917 C 11.64 g/m*3 21.39 C 0 km/h
192 02-06-2008 00:00:00 23.66833 C 12.72 g/m*3 23.67 C 0 km/h
193 03-06-2008 00:00:00 21.2825 C 11.09 g/m*3 21.28 C 0 km/h
194 04-06-2008 00:00:00 19.19833 C 11.48 g/m*3 19.2 C 0 km/h
195 05-06-2008 00:00:00 20.67731 C 12.57 g/m*3 20.68 C 0 km/h
196 06-06-2008 00:00:00 21.07333 C 10.91 g/m*3 21.07 C 0 km/h
197 07-06-2008 00:00:00 19.84417 C 10.51 g/m*3 19.84 C 0 km/h
198 08-06-2008 00:00:00 20.63167 C 10.52 g/m*3 20.63 C 0 km/h
199 09-06-2008 00:00:00 22.875 C 10.01 g/m*3 22.88 C 0 km/h
200 10-06-2008 00:00:00 23.51583 C 9.23 g/m*3 23.52 C 0 km/h
Sensor: Nr:Datum:Temp:Abs-Feuchte:Windchill:Wind:
Aussen-T/F 201 11-06-2008 00:00:00 18.4725 C 7.23 g/m*3 18.47 C 0 km/h
202 12-06-2008 00:00:00 12.7425 C 7.69 g/m*3 12.74 C 0 km/h
203 13-06-2008 00:00:00 13.67167 C 7.09 g/m*3 13.67 C 0 km/h
204 14-06-2008 00:00:00 13.75917 C 7.2 g/m*3 13.76 C 0 km/h
205 15-06-2008 00:00:00 13.75333 C 8.27 g/m*3 13.75 C 0 km/h
206 16-06-2008 00:00:00 16.2275 C 7.7 g/m*3 16.23 C 0 km/h
207 17-06-2008 00:00:00 17.34333 C 7.29 g/m*3 17.34 C 0 km/h
208 18-06-2008 00:00:00 20.30583 C 7.89 g/m*3 20.31 C 0 km/h
209 19-06-2008 00:00:00 20.67417 C 8.05 g/m*3 20.67 C 0 km/h
210 20-06-2008 00:00:00 18.32 C 8.63 g/m*3 18.32 C 0 km/h
211 21-06-2008 00:00:00 23.24706 C 9.11 g/m*3 23.25 C 0 km/h
212 22-06-2008 00:00:00 24.30833 C 11.76 g/m*3 24.31 C 0 km/h
213 23-06-2008 00:00:00 22.40417 C 8.41 g/m*3 22.4 C 0 km/h
214 24-06-2008 00:00:00 23.6325 C 8.33 g/m*3 23.63 C 0 km/h
215 25-06-2008 00:00:00 22.66833 C 12.11 g/m*3 22.67 C 0 km/h
216 26-06-2008 00:00:00 20.39833 C 8.44 g/m*3 20.4 C 0 km/h
217 27-06-2008 00:00:00 18.72167 C 8.67 g/m*3 18.72 C 0 km/h
218 28-06-2008 00:00:00 21.21 C 9.93 g/m*3 21.21 C 0 km/h
219 29-06-2008 00:00:00 22.68667 C 9.85 g/m*3 22.69 C 0 km/h
220 30-06-2008 00:00:00 22.95083 C 8.73 g/m*3 22.95 C 0 km/h
221 01-07-2008 00:00:00 24.35583 C 9.2 g/m*3 24.36 C 0 km/h
222 02-07-2008 00:00:00 26.47583 C 10.39 g/m*3 26.48 C 0 km/h
223 03-07-2008 00:00:00 20.18992 C 12.77 g/m*3 20.19 C 0 km/h
224 04-07-2008 00:00:00 19.38083 C 9.22 g/m*3 19.38 C 0 km/h
225 05-07-2008 00:00:00 21.0575 C 8.87 g/m*3 21.06 C 0 km/h
Sensor: Nr:Datum:Temp:Abs-Feuchte:Windchill:Wind:
Aussen-T/F 226 06-07-2008 00:00:00 21.2225 C 8.99 g/m*3 21.22 C 0 km/h
227 07-07-2008 00:00:00 18.24917 C 8.13 g/m*3 18.25 C 0 km/h
228 08-07-2008 00:00:00 17.2125 C 8.69 g/m*3 17.21 C 0 km/h
229 09-07-2008 00:00:00 17.0525 C 8.83 g/m*3 17.05 C 0 km/h
230 10-07-2008 00:00:00 22.32833 C 10.77 g/m*3 22.33 C 0 km/h
231 11-07-2008 00:00:00 20.48167 C 11.17 g/m*3 20.48 C 0 km/h
232 12-07-2008 00:00:00 17.645 C 9.92 g/m*3 17.65 C 0 km/h
233 13-07-2008 00:00:00 17.8375 C 8.02 g/m*3 17.84 C 0 km/h
234 14-07-2008 00:00:00 18.38 C 7.76 g/m*3 18.38 C 0 km/h
235 15-07-2008 00:00:00 19.61978 C 8.34 g/m*3 19.62 C 0 km/h
236 16-07-2008 00:00:00 20.38298 C 10.82 g/m*3 20.38 C 0 km/h
237 17-07-2008 00:00:00 17.22917 C 8.94 g/m*3 17.23 C 0 km/h
238 18-07-2008 00:00:00 16.58125 C 9.74 g/m*3 16.58 C 0 km/h
239 19-07-2008 00:00:00 19.61667 C 9.94 g/m*3 19.62 C 0 km/h
240 20-07-2008 00:00:00 15.48542 C 9.13 g/m*3 15.49 C 0 km/h
241 21-07-2008 00:00:00 12.62917 C 8.41 g/m*3 12.63 C 0 km/h
242 22-07-2008 00:00:00 14.56042 C 9.4 g/m*3 14.56 C 0 km/h
243 23-07-2008 00:00:00 18.94375 C 9.57 g/m*3 18.94 C 0 km/h
244 24-07-2008 00:00:00 22.13958 C 9.31 g/m*3 22.14 C 0 km/h
245 25-07-2008 00:00:00 24.55625 C 9.56 g/m*3 24.56 C 0 km/h
246 26-07-2008 00:00:00 23.54792 C 12.42 g/m*3 23.55 C 0 km/h
247 27-07-2008 00:00:00 23.20625 C 13.92 g/m*3 23.21 C 0 km/h
248 28-07-2008 00:00:00 25.10833 C 12.45 g/m*3 25.11 C 0 km/h
249 29-07-2008 00:00:00 24.49792 C 12.1 g/m*3 24.5 C 0 km/h
250 30-07-2008 00:00:00 23.67292 C 12.74 g/m*3 23.67 C 0 km/h
Sensor: Nr:Datum:Temp:Abs-Feuchte:Windchill:Wind:
Aussen-T/F 251 31-07-2008 00:00:00 24.69792 C 13.38 g/m*3 24.7 C 0 km/h
252 01-08-2008 00:00:00 24.97917 C 10.83 g/m*3 24.98 C 0 km/h
253 02-08-2008 00:00:00 21.29792 C 9.43 g/m*3 21.3 C 0 km/h
254 03-08-2008 00:00:00 23.42561 C 10.97 g/m*3 23.43 C 0 km/h
255 04-08-2008 00:00:00 21.85083 C 10.01 g/m*3 21.85 C 0 km/h
256 05-08-2008 00:00:00 20.3125 C 8.72 g/m*3 20.31 C 0 km/h
257 06-08-2008 00:00:00 24.05417 C 10.21 g/m*3 24.05 C 0 km/h
258 07-08-2008 00:00:00 24.29583 C 11.12 g/m*3 24.3 C 0 km/h
259 08-08-2008 00:00:00 18.50948 C 11.78 g/m*3 18.51 C 0 km/h
260 09-08-2008 00:00:00 19.32 C 9.06 g/m*3 19.32 C 0 km/h
261 10-08-2008 00:00:00 20.1 C 9.41 g/m*3 20.1 C 0 km/h
262 11-08-2008 00:00:00 20.59748 C 9.44 g/m*3 20.6 C 0 km/h
263 12-08-2008 00:00:00 18.91833 C 12.54 g/m*3 18.92 C 0 km/h
264 13-08-2008 00:00:00 18.3525 C 8.74 g/m*3 18.35 C 0 km/h
265 14-08-2008 00:00:00 19.14917 C 7.79 g/m*3 19.15 C 0 km/h
266 15-08-2008 00:00:00 18.3625 C 8.19 g/m*3 18.36 C 0 km/h
267 16-08-2008 00:00:00 18.89 C 8.44 g/m*3 18.89 C 0 km/h
268 17-08-2008 00:00:00 19.10252 C 8.4 g/m*3 19.1 C 0 km/h
269 18-08-2008 00:00:00 21.21 C 10.7 g/m*3 21.21 C 0 km/h
270 19-08-2008 00:00:00 20.7925 C 9.67 g/m*3 20.79 C 0 km/h
271 20-08-2008 00:00:00 18.82 C 9.37 g/m*3 18.82 C 0 km/h
272 21-08-2008 00:00:00 19.6375 C 8.99 g/m*3 19.64 C 0 km/h
273 22-08-2008 00:00:00 18.45333 C 11.1 g/m*3 18.45 C 0 km/h
274 23-08-2008 00:00:00 14.95083 C 9.15 g/m*3 14.95 C 0 km/h
275 24-08-2008 00:00:00 16.59333 C 8.67 g/m*3 16.59 C 0 km/h
Sensor: Nr:Datum:Temp:Abs-Feuchte:Windchill:Wind:
Aussen-T/F 276 25-08-2008 00:00:00 17.43583 C 10.93 g/m*3 17.44 C 0 km/h
277 26-08-2008 00:00:00 19.2725 C 10.13 g/m*3 19.27 C 0 km/h
278 27-08-2008 00:00:00 19.89833 C 10.62 g/m*3 19.9 C 0 km/h
279 28-08-2008 00:00:00 20.35417 C 9.37 g/m*3 20.35 C 0 km/h
280 29-08-2008 00:00:00 20.84454 C 9.74 g/m*3 20.84 C 0 km/h
281 30-08-2008 00:00:00 21.35167 C 10.94 g/m*3 21.35 C 0 km/h
282 31-08-2008 00:00:00 22.25917 C 10.49 g/m*3 22.26 C 0 km/h
283 01-09-2008 00:00:00 20.93917 C 10.36 g/m*3 20.94 C 0 km/h
284 02-09-2008 00:00:00 19.11333 C 9.31 g/m*3 19.11 C 0 km/h
285 03-09-2008 00:00:00 15.21083 C 10.42 g/m*3 15.21 C 0 km/h
286 04-09-2008 00:00:00 13.7025 C 7.94 g/m*3 13.7 C 0 km/h
287 05-09-2008 00:00:00 16.9775 C 10.5 g/m*3 16.98 C 0 km/h
288 06-09-2008 00:00:00 17.5625 C 11.38 g/m*3 17.56 C 0 km/h
289 07-09-2008 00:00:00 16.83583 C 9.34 g/m*3 16.84 C 0 km/h
290 08-09-2008 00:00:00 17.9741 C 8.43 g/m*3 17.97 C 0 km/h
291 09-09-2008 00:00:00 18.12014 C 9.04 g/m*3 18.12 C 0 km/h
292 10-09-2008 00:00:00 21.10243 C 10.72 g/m*3 21.1 C 0 km/h
293 11-09-2008 00:00:00 19.94479 C 12.52 g/m*3 19.94 C 0 km/h
294 12-09-2008 00:00:00 16.69236 C 12.91 g/m*3 16.69 C 0 km/h
295 13-09-2008 00:00:00 12.63937 C 10.07 g/m*3 12.64 C 0 km/h
296 14-09-2008 00:00:00 11.66215 C 6.19 g/m*3 11.66 C 0 km/h
297 15-09-2008 00:00:00 10.27153 C 7.08 g/m*3 10.27 C 0 km/h
298 16-09-2008 00:00:00 11.32014 C 7.11 g/m*3 11.32 C 0 km/h
299 17-09-2008 00:00:00 11.34948 C 5.77 g/m*3 11.35 C 0 km/h
300 18-09-2008 00:00:00 10.63264 C 5.3 g/m*3 10.63 C 0 km/h
Sensor: Nr:Datum:Temp:Abs-Feuchte:Windchill:Wind:
Aussen-T/F 301 19-09-2008 00:00:00 10.48333 C 6.14 g/m*3 10.48 C 0 km/h
302 20-09-2008 00:00:00 11.00556 C 6.26 g/m*3 11.01 C 0 km/h
303 21-09-2008 00:00:00 11.67222 C 6.89 g/m*3 11.67 C 0 km/h
304 22-09-2008 00:00:00 12.57108 C 7.54 g/m*3 12.57 C 0 km/h
305 23-09-2008 00:00:00 12.21111 C 8.35 g/m*3 12.21 C 0 km/h
306 24-09-2008 00:00:00 13.30799 C 9.32 g/m*3 13.31 C 0 km/h
307 25-09-2008 00:00:00 12.56736 C 7.77 g/m*3 12.57 C 0 km/h
308 26-09-2008 00:00:00 12.00521 C 7.09 g/m*3 12.01 C 0 km/h
309 27-09-2008 00:00:00 11.93693 C 7.15 g/m*3 11.94 C 0 km/h
310 28-09-2008 00:00:00 11.96493 C 7.21 g/m*3 11.96 C 0 km/h
311 29-09-2008 00:00:00 11.47396 C 7.33 g/m*3 11.47 C 0 km/h
312 30-09-2008 00:00:00 10.38611 C 7.67 g/m*3 10.39 C 0 km/h
313 01-10-2008 00:00:00 13.07222 C 8.43 g/m*3 13.07 C 0 km/h
314 02-10-2008 00:00:00 10.70244 C 6.41 g/m*3 10.7 C 0 km/h
315 03-10-2008 00:00:00 8.94063 C 6.04 g/m*3 8.94 C 0 km/h
316 04-10-2008 00:00:00 9.76632 C 5.66 g/m*3 9.77 C 0 km/h
317 05-10-2008 00:00:00 11.69062 C 6.1 g/m*3 11.69 C 0 km/h
318 06-10-2008 00:00:00 14.79306 C 10.16 g/m*3 14.79 C 0 km/h
319 07-10-2008 00:00:00 15.17875 C 10.24 g/m*3 15.18 C 0 km/h
320 08-10-2008 00:00:00 13.26389 C 10.6 g/m*3 13.26 C 0 km/h
321 09-10-2008 00:00:00 13.20937 C 8.82 g/m*3 13.21 C 0 km/h
322 10-10-2008 00:00:00 13.01806 C 8.66 g/m*3 13.02 C 0 km/h
323 11-10-2008 00:00:00 13.2125 C 9 g/m*3 13.21 C 0 km/h
324 12-10-2008 00:00:00 15.40729 C 9.68 g/m*3 15.41 C 0 km/h
325 13-10-2008 00:00:00 14.40976 C 9.47 g/m*3 14.41 C 0 km/h
Sensor: Nr:Datum:Temp:Abs-Feuchte:Windchill:Wind:
Aussen-T/F 326 14-10-2008 00:00:00 15.63438 C 9.35 g/m*3 15.63 C 0 km/h
327 15-10-2008 00:00:00 13.57361 C 8.88 g/m*3 13.57 C 0 km/h
328 16-10-2008 00:00:00 11.59444 C 8.43 g/m*3 11.59 C 0 km/h
329 17-10-2008 00:00:00 8.00313 C 6.15 g/m*3 8 C 0 km/h
330 18-10-2008 00:00:00 7.10488 C 5.92 g/m*3 7.1 C 0 km/h
331 19-10-2008 00:00:00 8.10521 C 6.25 g/m*3 8.11 C 0 km/h
332 20-10-2008 00:00:00 9.83646 C 7.21 g/m*3 9.84 C 0 km/h
333 21-10-2008 00:00:00 13.12986 C 9.32 g/m*3 13.13 C 0 km/h
334 22-10-2008 00:00:00 9.36528 C 7.49 g/m*3 9.37 C 0 km/h
335 23-10-2008 00:00:00 9.2115 C 6.5 g/m*3 9.21 C 0 km/h
336 24-10-2008 00:00:00 7.4434 C 6.07 g/m*3 7.44 C 0 km/h
337 25-10-2008 00:00:00 10.48151 C 7.39 g/m*3 10.48 C 0 km/h
338 26-10-2008 00:00:00 10.725 C 6.55 g/m*3 10.73 C 0 km/h
339 27-10-2008 00:00:00 10.21724 C 7.98 g/m*3 10.22 C 0 km/h
340 28-10-2008 00:00:00 6.92456 C 6.29 g/m*3 6.92 C 0 km/h
341 29-10-2008 00:00:00 5.45 C 5.63 g/m*3 5.45 C 0 km/h
342 30-10-2008 00:00:00 4.78947 C 6 g/m*3 4.79 C 0 km/h
343 31-10-2008 00:00:00 5.97414 C 6.34 g/m*3 5.97 C 0 km/h
344 01-11-2008 00:00:00 7.97414 C 7.15 g/m*3 7.97 C 0 km/h
345 02-11-2008 00:00:00 9.98772 C 7.86 g/m*3 9.99 C 0 km/h
346 03-11-2008 00:00:00 9.82241 C 7.83 g/m*3 9.82 C 0 km/h
347 04-11-2008 00:00:00 9.00351 C 7.82 g/m*3 9 C 0 km/h
348 05-11-2008 00:00:00 9.79828 C 7.68 g/m*3 9.8 C 0 km/h
349 06-11-2008 00:00:00 10.54483 C 7.37 g/m*3 10.54 C 0 km/h
350 07-11-2008 00:00:00 10.79123 C 7.22 g/m*3 10.79 C 0 km/h
Sensor: Nr:Datum:Temp:Abs-Feuchte:Windchill:Wind:
Aussen-T/F 351 08-11-2008 00:00:00 8.24828 C 6.77 g/m*3 8.25 C 0 km/h
352 09-11-2008 00:00:00 8.89583 C 7.31 g/m*3 8.9 C 0 km/h
353 10-11-2008 00:00:00 13.98833 C 7.91 g/m*3 13.99 C 0 km/h
354 11-11-2008 00:00:00 12.73917 C 6.46 g/m*3 12.74 C 0 km/h
355 12-11-2008 00:00:00 8.5175 C 6.56 g/m*3 8.52 C 0 km/h
356 13-11-2008 00:00:00 6.40667 C 6.06 g/m*3 6.41 C 0 km/h
357 14-11-2008 00:00:00 5.60833 C 5.47 g/m*3 5.61 C 0 km/h
358 15-11-2008 00:00:00 9.82083 C 7.04 g/m*3 9.82 C 0 km/h
359 16-11-2008 00:00:00 9.9375 C 7.83 g/m*3 9.94 C 0 km/h
360 17-11-2008 00:00:00 4.03167 C 5.46 g/m*3 4.03 C 0 km/h
361 18-11-2008 00:00:00 4.76417 C 5.59 g/m*3 4.76 C 0 km/h
362 19-11-2008 00:00:00 7.7775 C 6.09 g/m*3 7.78 C 0 km/h
363 20-11-2008 00:00:00 9.54 C 6.58 g/m*3 9.54 C 0 km/h
364 21-11-2008 00:00:00 5.21083 C 5.22 g/m*3 5.21 C 0 km/h
365 22-11-2008 00:00:00 1.08571 C 3.81 g/m*3 1.09 C 0 km/h
366 23-11-2008 00:00:00 0.81333 C 4.11 g/m*3 0.81 C 0 km/h

Maximal/Minimal-Werte vom 17.04.2019 - 19.05.2019

Sensor Min Max Avg
Temp
(Aussen-T/F)
2.2 °C
13-05-2019  06:50:00
26.6 °C
24-04-2019  17:05:00
11.51 °C

Die Daten stammen von einer Davis Vantage Pro 2 Wetter-Station und werden unter Linux mit der Software wview2wettercgi und aufbereitet. Alle Angaben erfolgen ohne Gewähr für ihre Vollständigkeit oder Richtigkeit.
Kontakt: Rainer Krienke krienke@uni-koblenz.de . Meine Webseiten an der Uni Koblenz oder privat.
Version: $Revision: 0.78 $